Sugar Loaf, Idaho
Current Conditions -  °F | °C
As of 8:53 AM on Thursday 27 Nov 2014 (Local Time) from KJER Reporting Station
Scattered Clouds Scattered Clouds  
Wind Chill: 48°   Ceiling: Unl
Heat Index: 48°   Visibility: 10mi
Dew Point: 31°   Wind: 3mph
Humidity: 52%   Direction: 150°SSE
Pressure: 30.2"   Gusts: NA
Location:  42.7238°N, 114.338°W
Report Text: KJER 271553Z AUTO 15003KT 10SM SCT110 09/M01 A3020 RMK AO2 SLP227 T00891006
Loading
Personal Weather Stations






























Interactive Weather Map New forecast layout! Learn more

10-Day Weather Forecast

Advertisements
Track Severe Weather on mobile